createdAt,value
2017-09-15T16:00:30.705Z,3.53
2017-09-15T16:02:59.984Z,3.70
2017-09-15T16:05:29.785Z,3.83
2017-09-15T16:14:55.352Z,225.77
2017-09-15T16:25:49.435Z,58.47
2017-09-15T17:58:41.922Z,1.80
2017-09-15T18:01:09.494Z,1.00
2017-09-15T18:03:37.322Z,1.10
2017-09-15T18:06:05.321Z,1.43
2017-09-15T18:08:33.178Z,1.20
2017-09-15T18:11:01.450Z,1.23
2017-09-15T18:13:29.022Z,1.60
2017-09-15T18:15:56.806Z,1.10
2017-09-15T18:18:25.437Z,1.60
2017-09-15T18:20:52.993Z,1.50
2017-09-15T18:23:21.237Z,1.60
2017-09-15T18:25:48.778Z,1.40
2017-09-15T18:28:18.502Z,1.20
2017-09-15T18:30:46.059Z,1.47
2017-09-15T18:33:13.772Z,1.50
2017-09-15T18:35:41.905Z,1.60
2017-09-15T18:38:10.169Z,1.73
2017-09-15T18:40:39.586Z,1.70
2017-09-15T18:43:07.093Z,1.97
2017-09-15T18:45:35.238Z,1.43
2017-09-15T18:48:03.031Z,1.97
2017-09-15T18:50:31.302Z,2.00
2017-09-15T18:52:59.042Z,1.53
2017-09-15T18:55:26.883Z,1.63
2017-09-15T18:57:54.438Z,1.80
2017-09-15T19:00:22.269Z,1.50
2017-09-15T19:02:50.061Z,1.90
2017-09-15T19:05:17.857Z,1.20
2017-09-15T19:07:46.580Z,1.60
2017-09-15T21:19:09.927Z,7.97
2017-09-15T21:21:40.275Z,7.47
2017-09-15T21:24:09.935Z,9.10
2017-09-15T21:26:39.847Z,9.03
2017-09-15T21:29:10.515Z,8.60
2017-09-15T21:31:42.525Z,10.50
2017-09-15T21:34:12.162Z,9.73
2017-09-15T21:36:42.096Z,10.00
2017-09-15T21:39:11.849Z,8.87
2017-09-15T21:41:41.371Z,8.10
2017-09-15T22:00:02.660Z,84.50
2017-09-15T22:02:32.142Z,76.03
2017-09-15T22:05:02.388Z,95.73
2017-09-15T22:07:32.619Z,147.60
2017-09-15T22:10:02.310Z,142.27
2017-09-15T22:12:31.817Z,180.90
2017-09-15T22:15:01.281Z,122.47
2017-09-15T22:17:31.572Z,100.50
2017-09-15T22:20:01.259Z,92.03
2017-09-15T22:22:30.680Z,83.17
2017-09-15T22:25:00.090Z,86.67
2017-09-15T22:27:29.500Z,97.07
2017-09-15T22:29:58.957Z,93.63
2017-09-15T22:32:28.434Z,107.80
2017-09-15T22:34:58.682Z,98.40
2017-09-15T22:37:28.244Z,76.63
2017-09-15T22:39:57.679Z,70.67
2017-09-15T22:42:28.144Z,80.90
2017-09-15T22:44:59.749Z,107.83
2017-09-15T22:47:37.282Z,87.87
2017-09-15T22:50:11.243Z,73.93
2017-09-15T22:52:40.764Z,79.83
2017-09-15T22:55:10.186Z,72.57
2017-09-15T22:57:43.274Z,78.00
2017-09-15T23:00:18.962Z,61.83
